createdAt,value
2023-04-13T00:01:13.589Z,8.10
2023-04-13T00:03:40.781Z,3.17
2023-04-13T00:06:11.122Z,2.38
2023-04-13T00:08:38.832Z,3.78
2023-04-13T00:11:07.509Z,5.40
2023-04-13T00:13:41.224Z,2.45
2023-04-13T00:16:09.832Z,2.35
2023-04-13T00:18:36.867Z,2.38
2023-04-13T00:21:04.100Z,8.38
2023-04-13T00:23:31.935Z,2.53
2023-04-13T00:26:01.372Z,3.90
2023-04-13T00:28:29.586Z,3.78
2023-04-13T00:30:58.990Z,1.17
2023-04-13T00:33:26.115Z,3.30
2023-04-13T00:35:53.122Z,3.47
2023-04-13T00:38:20.126Z,6.32
2023-04-13T00:40:47.145Z,0.90
2023-04-13T00:43:14.818Z,1.48
2023-04-13T00:45:43.639Z,7.22
2023-04-13T00:48:11.313Z,3.65
2023-04-13T00:50:39.623Z,3.10
2023-04-13T00:53:10.437Z,5.00
2023-04-13T00:55:39.289Z,3.55
2023-04-13T00:58:06.506Z,4.43
2023-04-13T01:00:33.521Z,8.95
2023-04-13T01:03:01.780Z,5.00
2023-04-13T01:05:35.307Z,5.25
2023-04-13T01:08:20.903Z,10.35
2023-04-13T01:10:54.148Z,4.72
2023-04-13T01:13:40.482Z,2.47
2023-04-13T01:16:11.918Z,1.02
2023-04-13T01:18:41.752Z,0.98
2023-04-13T01:21:14.670Z,5.82
2023-04-13T01:23:58.747Z,4.32
2023-04-13T01:26:51.371Z,5.15
2023-04-13T01:29:18.744Z,5.75
2023-04-13T01:31:48.602Z,4.57
2023-04-13T01:34:16.594Z,3.72
2023-04-13T01:36:45.707Z,2.60
2023-04-13T01:39:20.145Z,4.25
2023-04-13T01:41:48.402Z,4.65
2023-04-13T01:44:15.587Z,4.22
2023-04-13T01:46:47.566Z,4.03
2023-04-13T01:49:35.323Z,4.53
2023-04-13T01:52:27.835Z,4.13
2023-04-13T01:54:56.339Z,1.67
2023-04-13T01:57:24.738Z,6.47
2023-04-13T01:59:52.387Z,4.00
2023-04-13T02:02:21.119Z,5.50
2023-04-13T02:04:48.508Z,9.02
2023-04-13T02:07:16.857Z,2.22
2023-04-13T02:09:47.862Z,8.15
2023-04-13T02:12:16.809Z,3.75
2023-04-13T02:14:43.830Z,4.50
2023-04-13T02:17:11.742Z,2.42
2023-04-13T02:19:40.722Z,2.10
2023-04-13T02:22:07.770Z,4.15
2023-04-13T02:24:34.804Z,3.53
2023-04-13T02:27:02.078Z,2.88
2023-04-13T02:29:29.650Z,3.83
2023-04-13T02:31:57.816Z,3.13
2023-04-13T02:34:26.045Z,5.05
2023-04-13T02:36:53.626Z,7.78
2023-04-13T02:39:20.871Z,3.47
2023-04-13T02:41:48.840Z,3.17
2023-04-13T02:44:22.021Z,3.75
2023-04-13T02:46:54.319Z,8.73
2023-04-13T02:49:21.485Z,15.68
2023-04-13T02:51:57.611Z,7.47
2023-04-13T02:54:38.007Z,1.65
2023-04-13T02:57:05.096Z,9.20
2023-04-13T02:59:35.027Z,3.20
2023-04-13T03:02:04.658Z,3.88
2023-04-13T03:04:33.332Z,0.75
2023-04-13T03:07:05.008Z,3.75
2023-04-13T03:09:32.945Z,2.65
2023-04-13T03:12:00.003Z,2.42
2023-04-13T03:14:29.816Z,1.42
2023-04-13T03:17:04.301Z,2.00
2023-04-13T03:19:39.367Z,3.67
2023-04-13T03:22:08.192Z,4.30
2023-04-13T03:24:39.826Z,1.80
2023-04-13T03:27:09.989Z,6.63
2023-04-13T03:29:45.295Z,6.90
2023-04-13T03:32:18.847Z,5.30
2023-04-13T03:34:49.663Z,7.97
2023-04-13T03:37:16.728Z,0.90
2023-04-13T03:39:44.339Z,3.75
2023-04-13T03:42:15.802Z,8.93
2023-04-13T03:44:50.129Z,3.05
2023-04-13T03:47:17.215Z,4.30
2023-04-13T03:49:44.237Z,4.32
2023-04-13T03:52:11.454Z,4.03
2023-04-13T03:54:42.449Z,4.95
2023-04-13T03:57:09.547Z,2.97
2023-04-13T03:59:36.768Z,4.40
2023-04-13T04:02:05.497Z,10.20
2023-04-13T04:04:35.782Z,3.28
2023-04-13T04:07:02.877Z,4.32
2023-04-13T04:09:31.727Z,7.20
2023-04-13T04:11:58.830Z,6.05
2023-04-13T04:14:37.112Z,6.70
2023-04-13T04:17:14.515Z,4.40
2023-04-13T04:19:41.763Z,6.10
2023-04-13T04:22:09.820Z,4.53
2023-04-13T04:24:42.246Z,6.95
2023-04-13T04:27:09.375Z,5.60
2023-04-13T04:29:36.481Z,5.35
2023-04-13T04:32:26.203Z,10.85
2023-04-13T04:34:54.999Z,6.18
2023-04-13T04:37:25.849Z,6.30
2023-04-13T04:40:10.583Z,2.45
2023-04-13T04:42:39.353Z,10.55
2023-04-13T04:45:16.929Z,10.50
2023-04-13T04:47:48.828Z,11.60
2023-04-13T04:50:20.277Z,10.57
2023-04-13T04:52:52.632Z,13.15
2023-04-13T04:55:23.443Z,8.25
2023-04-13T04:57:50.555Z,5.97
2023-04-13T05:00:20.231Z,6.13
2023-04-13T05:03:09.674Z,5.82
2023-04-13T05:05:40.317Z,7.57
2023-04-13T05:08:11.746Z,8.70
2023-04-13T05:10:46.089Z,10.23
2023-04-13T05:13:13.118Z,9.13
2023-04-13T05:15:43.298Z,8.32
2023-04-13T05:18:12.817Z,11.10
2023-04-13T05:20:41.508Z,14.30
2023-04-13T05:23:09.626Z,7.57
2023-04-13T05:25:43.007Z,9.43
2023-04-13T05:28:17.331Z,7.93
2023-04-13T05:30:45.322Z,16.08
2023-04-13T05:33:12.343Z,14.20
2023-04-13T05:35:40.584Z,7.78
2023-04-13T05:38:09.208Z,13.95
2023-04-13T05:40:36.279Z,7.88
2023-04-13T05:43:04.791Z,7.15
2023-04-13T05:45:36.067Z,10.97
2023-04-13T05:48:07.283Z,3.83
2023-04-13T05:50:34.706Z,11.05
2023-04-13T05:53:02.360Z,5.30
2023-04-13T05:55:45.096Z,8.65
2023-04-13T05:58:13.310Z,6.88
2023-04-13T06:00:41.345Z,17.90
2023-04-13T06:03:12.991Z,7.50
2023-04-13T06:05:40.325Z,11.10
2023-04-13T06:08:10.483Z,9.30
2023-04-13T06:10:38.954Z,11.93
2023-04-13T06:13:06.044Z,7.88
2023-04-13T06:15:36.319Z,7.15
2023-04-13T06:18:03.501Z,11.98
2023-04-13T06:20:33.316Z,9.68
2023-04-13T06:23:00.377Z,7.20
2023-04-13T06:25:27.995Z,7.20
2023-04-13T06:27:56.159Z,2.05
2023-04-13T06:30:23.259Z,11.65
2023-04-13T06:32:54.356Z,5.32
2023-04-13T06:35:23.614Z,4.47
2023-04-13T06:37:51.703Z,6.80
2023-04-13T06:40:25.629Z,8.30
2023-04-13T06:43:03.808Z,4.28
2023-04-13T06:45:40.252Z,6.53
2023-04-13T06:48:11.473Z,7.53
2023-04-13T06:50:39.423Z,14.50
2023-04-13T06:53:07.533Z,7.55
2023-04-13T06:55:35.022Z,5.53
2023-04-13T06:58:02.028Z,2.55
2023-04-13T07:00:30.610Z,7.85
2023-04-13T07:03:00.186Z,4.22
2023-04-13T07:05:28.004Z,6.18
2023-04-13T07:08:00.009Z,9.70
2023-04-13T07:10:27.221Z,7.13
2023-04-13T07:12:57.634Z,6.22
2023-04-13T07:15:27.782Z,7.22
2023-04-13T07:17:55.960Z,6.45
2023-04-13T07:20:23.059Z,9.10
2023-04-13T07:22:51.056Z,9.25
2023-04-13T07:25:18.229Z,5.00
2023-04-13T07:27:46.199Z,4.07
2023-04-13T07:30:13.770Z,9.93
2023-04-13T07:32:45.125Z,3.28
2023-04-13T07:35:12.620Z,5.65
2023-04-13T07:37:42.372Z,7.03
2023-04-13T07:40:11.887Z,8.32
2023-04-13T07:42:41.568Z,2.05
2023-04-13T07:45:13.952Z,7.10
2023-04-13T07:47:41.489Z,6.25
2023-04-13T07:50:09.749Z,6.50
2023-04-13T07:52:37.875Z,5.03
2023-04-13T07:55:06.126Z,7.32
2023-04-13T07:57:36.624Z,3.70
2023-04-13T08:00:06.179Z,8.20
2023-04-13T08:02:41.671Z,3.33
2023-04-13T08:05:12.499Z,2.67
2023-04-13T08:07:40.185Z,4.25
2023-04-13T08:10:08.488Z,3.90
2023-04-13T08:12:35.524Z,4.22
2023-04-13T08:15:02.928Z,3.83
2023-04-13T08:17:30.074Z,4.57
2023-04-13T08:19:57.411Z,2.00
2023-04-13T08:22:24.647Z,1.65
2023-04-13T08:24:51.637Z,1.95
2023-04-13T08:27:19.754Z,3.78
2023-04-13T08:29:47.364Z,10.00
2023-04-13T08:32:15.687Z,6.35
2023-04-13T08:34:42.842Z,1.20
2023-04-13T08:37:11.556Z,7.25
2023-04-13T08:39:38.660Z,4.38
2023-04-13T08:42:06.354Z,1.67
2023-04-13T08:44:40.144Z,2.58
2023-04-13T08:47:10.509Z,2.83
2023-04-13T08:49:39.282Z,2.50
2023-04-13T08:52:10.936Z,4.05
2023-04-13T08:54:40.406Z,4.18
2023-04-13T08:57:16.358Z,7.07
2023-04-13T08:59:44.499Z,3.30
2023-04-13T09:02:12.001Z,6.13
2023-04-13T09:04:53.972Z,3.38
2023-04-13T09:07:28.131Z,8.68
2023-04-13T09:10:00.674Z,5.57
2023-04-13T09:12:29.078Z,7.05
2023-04-13T09:14:56.469Z,15.57
2023-04-13T09:17:30.455Z,2.08
2023-04-13T09:22:38.111Z,1.02
2023-04-13T09:25:06.004Z,1.70
2023-04-13T09:27:35.133Z,1.67
2023-04-13T09:30:02.587Z,6.75
2023-04-13T09:32:29.609Z,2.13
2023-04-13T09:35:08.351Z,3.28
2023-04-13T09:37:36.887Z,3.78
2023-04-13T09:40:22.179Z,8.45
2023-04-13T09:42:58.909Z,1.85
2023-04-13T09:45:34.493Z,4.47
2023-04-13T09:48:05.545Z,2.78
2023-04-13T09:50:34.834Z,3.13
2023-04-13T09:53:06.497Z,8.32
2023-04-13T09:55:35.452Z,2.80
2023-04-13T09:58:10.076Z,2.17
2023-04-13T10:00:38.742Z,2.72
2023-04-13T10:03:11.687Z,4.63
2023-04-13T10:05:55.048Z,3.38
2023-04-13T10:08:36.889Z,2.35
2023-04-13T10:11:10.587Z,3.53
2023-04-13T10:13:47.841Z,2.75
2023-04-13T10:16:53.843Z,6.45
2023-04-13T10:19:24.769Z,1.45
2023-04-13T10:21:53.027Z,1.67
2023-04-13T10:24:22.183Z,5.03
2023-04-13T10:27:00.249Z,1.02
2023-04-13T10:29:32.627Z,5.38
2023-04-13T10:32:03.657Z,4.97
2023-04-13T10:34:34.295Z,3.80
2023-04-13T10:37:06.182Z,2.22
2023-04-13T10:39:34.941Z,1.63
2023-04-13T10:42:07.969Z,4.90
2023-04-13T10:44:47.707Z,1.95
2023-04-13T10:47:17.344Z,4.95
2023-04-13T10:49:48.338Z,10.10
2023-04-13T10:52:16.240Z,4.25
2023-04-13T10:54:44.572Z,0.52
2023-04-13T10:57:12.755Z,3.30
2023-04-13T10:59:55.670Z,5.50
2023-04-13T11:02:26.119Z,5.22
2023-04-13T11:04:53.628Z,2.58
2023-04-13T11:07:23.443Z,3.47
2023-04-13T11:09:50.868Z,6.72
2023-04-13T11:12:18.691Z,9.48
2023-04-13T11:14:49.548Z,4.70
2023-04-13T11:17:18.853Z,2.67
2023-04-13T11:19:56.874Z,3.90
2023-04-13T11:22:27.658Z,1.90
2023-04-13T11:25:06.722Z,1.92
2023-04-13T11:27:33.730Z,3.55
2023-04-13T11:30:06.030Z,0.77
2023-04-13T11:32:34.092Z,3.65
2023-04-13T11:35:08.613Z,2.60
2023-04-13T11:37:40.722Z,3.13
2023-04-13T11:40:10.550Z,2.38
2023-04-13T11:42:48.332Z,8.48
2023-04-13T11:45:17.319Z,4.85
2023-04-13T11:47:46.143Z,2.65
2023-04-13T11:50:15.824Z,2.83
2023-04-13T11:52:44.737Z,3.13
2023-04-13T11:55:22.438Z,5.40
2023-04-13T11:57:52.869Z,5.03
2023-04-13T12:00:25.818Z,3.25
2023-04-13T12:05:31.279Z,5.55
2023-04-13T12:10:40.572Z,5.95
2023-04-13T12:16:05.581Z,11.63
2023-04-13T12:18:44.256Z,8.52
2023-04-13T12:21:16.372Z,6.28
2023-04-13T12:23:54.343Z,7.20
2023-04-13T12:31:21.920Z,6.07
2023-04-13T12:33:49.028Z,13.85
2023-04-13T12:36:16.411Z,19.25
2023-04-13T12:38:43.625Z,13.30
2023-04-13T12:41:10.814Z,27.02
2023-04-13T12:43:37.888Z,11.02
2023-04-13T12:46:04.970Z,12.10
2023-04-13T12:48:31.944Z,7.45
2023-04-13T12:50:59.071Z,3.42
2023-04-13T12:53:26.215Z,6.68
2023-04-13T12:55:53.329Z,3.40
2023-04-13T12:58:20.480Z,8.02
2023-04-13T13:00:47.640Z,3.25
2023-04-13T13:03:15.296Z,3.30
2023-04-13T13:05:42.769Z,4.72
2023-04-13T13:08:09.777Z,4.15
2023-04-13T13:10:37.595Z,6.47
2023-04-13T13:13:06.105Z,3.15
2023-04-13T13:15:33.527Z,3.38
2023-04-13T13:18:02.983Z,3.40
2023-04-13T13:20:30.223Z,2.65
2023-04-13T13:22:57.680Z,6.53
2023-04-13T13:25:24.950Z,12.95
2023-04-13T13:30:21.936Z,8.18
2023-04-13T13:32:49.045Z,8.98
2023-04-13T13:35:16.667Z,6.38
2023-04-13T13:37:43.823Z,9.45
2023-04-13T13:40:12.910Z,8.98
2023-04-13T13:42:51.280Z,5.72
2023-04-13T13:45:22.859Z,11.27
2023-04-13T13:47:54.174Z,7.13
2023-04-13T13:50:28.668Z,14.85
2023-04-13T13:53:03.661Z,8.23
2023-04-13T13:55:36.070Z,11.35
2023-04-13T13:58:03.381Z,7.55
2023-04-13T14:00:31.055Z,14.48
2023-04-13T14:02:58.206Z,15.60
2023-04-13T14:05:25.328Z,11.20
2023-04-13T14:07:52.328Z,7.53
2023-04-13T14:10:19.326Z,5.05
2023-04-13T14:12:49.660Z,14.13
2023-04-13T14:15:17.710Z,10.40
2023-04-13T14:17:52.952Z,11.23
2023-04-13T14:20:29.327Z,16.02
2023-04-13T14:22:57.313Z,14.68
2023-04-13T14:25:24.311Z,11.13
2023-04-13T14:27:51.303Z,13.95
2023-04-13T14:30:18.863Z,18.38
2023-04-13T14:32:49.382Z,8.07
2023-04-13T14:35:16.710Z,11.70
2023-04-13T14:37:43.771Z,11.82
2023-04-13T14:40:17.022Z,9.25
2023-04-13T14:42:44.536Z,12.73
2023-04-13T14:45:12.344Z,12.45
2023-04-13T14:47:40.062Z,13.25
2023-04-13T14:50:08.323Z,9.55
2023-04-13T14:52:35.725Z,7.65
2023-04-13T14:55:02.910Z,11.98
2023-04-13T14:57:30.107Z,12.02
2023-04-13T14:59:57.126Z,11.45
2023-04-13T15:02:24.317Z,10.77
2023-04-13T15:04:51.604Z,7.60
2023-04-13T15:07:18.806Z,10.75
2023-04-13T15:09:45.852Z,8.65
2023-04-13T15:12:13.895Z,7.15
2023-04-13T15:14:46.468Z,10.70
2023-04-13T15:19:40.723Z,7.35
2023-04-13T15:22:07.741Z,10.50
2023-04-13T15:24:34.756Z,8.52
2023-04-13T15:27:01.839Z,11.73
2023-04-13T15:29:28.850Z,12.07
2023-04-13T15:31:55.885Z,10.40
2023-04-13T15:34:22.911Z,8.68
2023-04-13T15:36:49.898Z,12.52
2023-04-13T15:39:16.950Z,12.55
2023-04-13T15:41:44.013Z,12.35
2023-04-13T15:44:11.085Z,13.68
2023-04-13T15:46:38.430Z,12.82
2023-04-13T15:49:05.666Z,6.60
2023-04-13T15:51:32.791Z,14.73
2023-04-13T15:53:59.818Z,10.75
2023-04-13T15:56:28.394Z,13.07
2023-04-13T15:58:55.429Z,12.18
2023-04-13T16:01:22.681Z,8.38
2023-04-13T16:03:49.916Z,6.05
2023-04-13T16:06:17.031Z,5.90
2023-04-13T16:08:44.017Z,8.50
2023-04-13T16:11:11.663Z,13.98
2023-04-13T16:13:48.148Z,5.53
2023-04-13T16:16:16.737Z,10.38
2023-04-13T16:18:43.978Z,14.15
2023-04-13T16:21:12.293Z,13.35
2023-04-13T16:23:39.335Z,12.57
2023-04-13T16:26:06.404Z,11.18
2023-04-13T16:28:34.455Z,8.70
2023-04-13T16:31:01.905Z,6.68
2023-04-13T16:33:29.926Z,13.15
2023-04-13T16:35:58.224Z,7.75
2023-04-13T16:38:25.325Z,11.90
2023-04-13T16:40:52.352Z,7.50
2023-04-13T16:43:19.439Z,4.88
2023-04-13T16:45:47.100Z,10.32
2023-04-13T16:48:14.070Z,12.00
2023-04-13T16:50:41.268Z,13.25
2023-04-13T16:53:08.245Z,6.32
2023-04-13T16:55:35.232Z,8.57
2023-04-13T16:58:02.589Z,11.40
2023-04-13T17:00:29.633Z,11.70
2023-04-13T17:02:58.969Z,8.10
2023-04-13T17:05:28.378Z,6.32
2023-04-13T17:07:55.702Z,10.38
2023-04-13T17:10:23.040Z,11.48
2023-04-13T17:12:50.088Z,12.23
2023-04-13T17:15:19.146Z,10.05
2023-04-13T17:17:46.276Z,9.55
2023-04-13T17:20:15.119Z,11.65
2023-04-13T17:22:44.103Z,4.40
2023-04-13T17:25:11.249Z,11.70
2023-04-13T17:27:38.298Z,6.97
2023-04-13T17:30:06.398Z,13.40
2023-04-13T17:32:33.587Z,10.73
2023-04-13T17:35:00.989Z,10.00
2023-04-13T17:37:29.384Z,11.90
2023-04-13T17:39:56.508Z,12.65
2023-04-13T17:42:23.579Z,18.83
2023-04-13T17:44:50.679Z,11.93
2023-04-13T17:47:17.716Z,20.63
2023-04-13T17:49:44.826Z,5.07
2023-04-13T17:52:11.948Z,12.93
2023-04-13T17:54:40.419Z,11.05
2023-04-13T17:57:07.660Z,6.80
2023-04-13T17:59:34.707Z,9.35
2023-04-13T18:02:01.860Z,11.18
2023-04-13T18:04:31.350Z,12.00
2023-04-13T18:06:58.432Z,9.40
2023-04-13T18:09:49.570Z,7.78
2023-04-13T18:16:33.803Z,15.43
2023-04-13T18:19:42.068Z,7.50
2023-04-13T18:23:17.974Z,8.63
2023-04-13T18:26:37.993Z,10.27
2023-04-13T18:30:13.853Z,21.52
2023-04-13T18:36:10.872Z,19.13
2023-04-13T18:39:48.620Z,13.55
2023-04-13T18:52:49.855Z,19.40
2023-04-13T18:59:50.186Z,43.80
2023-04-13T19:03:17.330Z,42.75
2023-04-13T19:06:53.735Z,33.53
2023-04-13T19:14:42.070Z,24.83
2023-04-13T19:21:46.134Z,26.35
2023-04-13T19:26:04.659Z,23.73
2023-04-13T19:41:35.622Z,15.85
2023-04-13T19:53:14.412Z,9.52
2023-04-13T19:57:18.677Z,15.35
2023-04-13T20:01:21.673Z,15.68
2023-04-13T20:07:43.999Z,18.55
2023-04-13T20:10:12.190Z,19.20
2023-04-13T20:12:51.081Z,13.90
2023-04-13T20:15:22.762Z,24.25
2023-04-13T20:17:51.216Z,13.77
2023-04-13T20:20:20.590Z,18.92
2023-04-13T20:22:48.810Z,28.30
2023-04-13T20:25:15.941Z,14.05
2023-04-13T20:27:42.982Z,21.20
2023-04-13T20:30:10.866Z,24.73
2023-04-13T20:32:38.887Z,22.45
2023-04-13T20:35:06.380Z,15.80
2023-04-13T20:37:33.488Z,10.13
2023-04-13T20:40:00.626Z,15.35
2023-04-13T20:42:30.661Z,18.83
2023-04-13T20:44:58.372Z,18.38
2023-04-13T20:47:31.445Z,17.13
2023-04-13T20:49:59.858Z,12.75
2023-04-13T20:52:29.813Z,32.55
2023-04-13T20:54:56.948Z,28.83
2023-04-13T20:57:24.145Z,26.42
2023-04-13T20:59:52.082Z,30.88
2023-04-13T21:02:19.253Z,33.42
2023-04-13T21:04:46.699Z,33.45
2023-04-13T21:07:15.271Z,31.83
2023-04-13T21:09:42.578Z,32.88
2023-04-13T21:12:09.643Z,34.30
2023-04-13T21:14:36.725Z,22.80
2023-04-13T21:17:03.713Z,23.92
2023-04-13T21:19:32.439Z,28.67
2023-04-13T21:21:59.531Z,28.52
2023-04-13T21:24:26.573Z,17.38
2023-04-13T21:26:53.562Z,22.33
2023-04-13T21:29:20.734Z,20.58
2023-04-13T21:31:48.180Z,28.30
2023-04-13T21:34:16.604Z,25.08
2023-04-13T21:39:15.866Z,22.83
2023-04-13T21:41:42.861Z,17.75
2023-04-13T21:44:22.651Z,15.93
2023-04-13T21:46:55.888Z,19.75
2023-04-13T21:49:22.997Z,18.85
2023-04-13T21:51:50.097Z,12.50
2023-04-13T21:54:17.138Z,15.05
2023-04-13T21:56:44.174Z,22.25
2023-04-13T21:59:11.362Z,18.60
2023-04-13T22:01:38.617Z,18.70
2023-04-13T22:04:06.214Z,20.27
2023-04-13T22:06:33.314Z,19.95
2023-04-13T22:09:00.803Z,23.30
2023-04-13T22:11:28.197Z,24.67
2023-04-13T22:13:55.233Z,27.40
2023-04-13T22:16:22.582Z,19.50
2023-04-13T22:18:49.814Z,17.05
2023-04-13T22:21:16.824Z,23.70
2023-04-13T22:23:43.862Z,19.98
2023-04-13T22:26:10.862Z,26.08
2023-04-13T22:28:37.886Z,19.90
2023-04-13T22:31:08.972Z,23.35
2023-04-13T22:33:36.404Z,22.50
2023-04-13T22:36:05.041Z,21.27
2023-04-13T22:38:32.151Z,19.63
2023-04-13T22:40:59.228Z,18.67
2023-04-13T22:43:26.241Z,19.73
2023-04-13T22:46:00.104Z,12.77
2023-04-13T22:48:28.482Z,19.05
2023-04-13T22:50:56.883Z,16.85
2023-04-13T22:53:24.221Z,21.42
2023-04-13T22:55:51.205Z,15.02
2023-04-13T22:58:18.184Z,20.40
2023-04-13T23:00:45.258Z,26.20
2023-04-13T23:03:13.242Z,19.05
2023-04-13T23:05:40.593Z,14.77
2023-04-13T23:08:07.602Z,18.67
2023-04-13T23:10:34.610Z,16.65
2023-04-13T23:13:01.625Z,18.17
2023-04-13T23:15:28.650Z,16.23
2023-04-13T23:17:56.861Z,17.20
2023-04-13T23:20:24.010Z,17.67
2023-04-13T23:22:51.156Z,15.50
2023-04-13T23:25:18.130Z,19.38
2023-04-13T23:27:45.253Z,11.68
2023-04-13T23:30:12.749Z,11.02
2023-04-13T23:32:39.908Z,13.43
2023-04-13T23:35:07.676Z,14.40
2023-04-13T23:37:34.681Z,24.55
2023-04-13T23:40:01.694Z,19.08
2023-04-13T23:42:28.686Z,16.70
2023-04-13T23:44:55.678Z,21.38
2023-04-13T23:47:22.762Z,21.48
2023-04-13T23:49:51.421Z,20.33
2023-04-13T23:52:18.796Z,9.70
2023-04-13T23:54:45.830Z,10.18
2023-04-13T23:57:12.889Z,12.63
2023-04-13T23:59:39.945Z,16.80
